sensor_id;sensor_type;location;lat;lon;timestamp;P1;durP1;ratioP1;P2;durP2;ratioP2
40373;SDS011;26079;45.958;12.492;2023-06-04T00:01:52;1689.60;;;725.05;;
40373;SDS011;26079;45.958;12.492;2023-06-04T00:04:18;1980.18;;;843.70;;
40373;SDS011;26079;45.958;12.492;2023-06-04T00:06:43;1999.90;;;941.35;;
40373;SDS011;26079;45.958;12.492;2023-06-04T00:09:09;1999.90;;;921.88;;
40373;SDS011;26079;45.958;12.492;2023-06-04T00:11:35;1999.90;;;933.10;;
40373;SDS011;26079;45.958;12.492;2023-06-04T00:14:01;1999.90;;;912.65;;
40373;SDS011;26079;45.958;12.492;2023-06-04T00:16:28;1999.90;;;916.80;;
40373;SDS011;26079;45.958;12.492;2023-06-04T00:18:53;1999.90;;;876.47;;
40373;SDS011;26079;45.958;12.492;2023-06-04T00:21:19;1999.90;;;907.67;;
40373;SDS011;26079;45.958;12.492;2023-06-04T00:23:45;1999.90;;;947.88;;
40373;SDS011;26079;45.958;12.492;2023-06-04T00:26:11;1999.90;;;994.50;;
40373;SDS011;26079;45.958;12.492;2023-06-04T00:28:36;1999.90;;;999.90;;
40373;SDS011;26079;45.958;12.492;2023-06-04T00:31:04;1999.90;;;999.90;;
40373;SDS011;26079;45.958;12.492;2023-06-04T00:33:31;1999.90;;;999.90;;
40373;SDS011;26079;45.958;12.492;2023-06-04T00:35:57;1999.90;;;999.90;;
40373;SDS011;26079;45.958;12.492;2023-06-04T00:38:22;1999.90;;;999.90;;
40373;SDS011;26079;45.958;12.492;2023-06-04T00:40:48;1999.90;;;999.90;;
40373;SDS011;26079;45.958;12.492;2023-06-04T00:43:14;1999.90;;;999.90;;
40373;SDS011;26079;45.958;12.492;2023-06-04T00:45:40;1999.90;;;999.90;;
40373;SDS011;26079;45.958;12.492;2023-06-04T00:48:07;1999.90;;;999.90;;
40373;SDS011;26079;45.958;12.492;2023-06-04T00:50:33;1999.90;;;999.90;;
40373;SDS011;26079;45.958;12.492;2023-06-04T00:53:00;1999.90;;;999.90;;
40373;SDS011;26079;45.958;12.492;2023-06-04T00:55:26;1999.90;;;994.80;;
40373;SDS011;26079;45.958;12.492;2023-06-04T00:57:53;1999.90;;;986.90;;
40373;SDS011;26079;45.958;12.492;2023-06-04T01:00:19;1999.90;;;980.97;;
40373;SDS011;26079;45.958;12.492;2023-06-04T01:02:45;1999.90;;;878.70;;
40373;SDS011;26079;45.958;12.492;2023-06-04T01:05:29;1999.90;;;896.50;;
40373;SDS011;26079;45.958;12.492;2023-06-04T01:08:04;1999.90;;;969.88;;
40373;SDS011;26079;45.958;12.492;2023-06-04T01:10:33;1999.90;;;970.95;;
40373;SDS011;26079;45.958;12.492;2023-06-04T01:13:00;1999.90;;;968.60;;
40373;SDS011;26079;45.958;12.492;2023-06-04T01:15:25;1999.90;;;973.28;;
40373;SDS011;26079;45.958;12.492;2023-06-04T01:17:53;1999.90;;;999.90;;
40373;SDS011;26079;45.958;12.492;2023-06-04T01:20:40;1999.90;;;999.90;;
40373;SDS011;26079;45.958;12.492;2023-06-04T01:28:51;1999.90;;;999.90;;
40373;SDS011;26079;45.958;12.492;2023-06-04T01:31:18;1999.90;;;999.90;;
40373;SDS011;26079;45.958;12.492;2023-06-04T01:33:48;1999.90;;;999.90;;
40373;SDS011;26079;45.958;12.492;2023-06-04T01:36:20;1999.90;;;999.90;;
40373;SDS011;26079;45.958;12.492;2023-06-04T01:38:46;1999.90;;;999.90;;
40373;SDS011;26079;45.958;12.492;2023-06-04T01:41:12;1999.90;;;999.90;;
40373;SDS011;26079;45.958;12.492;2023-06-04T01:43:38;1999.90;;;999.90;;
40373;SDS011;26079;45.958;12.492;2023-06-04T01:46:03;1999.90;;;999.90;;
40373;SDS011;26079;45.958;12.492;2023-06-04T01:48:29;1999.90;;;955.30;;
40373;SDS011;26079;45.958;12.492;2023-06-04T01:50:56;1999.90;;;916.40;;
40373;SDS011;26079;45.958;12.492;2023-06-04T01:53:22;1987.43;;;835.15;;
40373;SDS011;26079;45.958;12.492;2023-06-04T01:55:48;1999.90;;;878.58;;
40373;SDS011;26079;45.958;12.492;2023-06-04T01:58:17;1987.70;;;842.83;;
40373;SDS011;26079;45.958;12.492;2023-06-04T02:00:48;1993.32;;;844.22;;
40373;SDS011;26079;45.958;12.492;2023-06-04T02:03:15;1800.68;;;737.17;;
40373;SDS011;26079;45.958;12.492;2023-06-04T02:05:41;1887.55;;;745.28;;
40373;SDS011;26079;45.958;12.492;2023-06-04T02:08:09;1846.68;;;704.40;;
40373;SDS011;26079;45.958;12.492;2023-06-04T02:10:36;1769.95;;;712.85;;
40373;SDS011;26079;45.958;12.492;2023-06-04T02:13:02;1825.97;;;725.42;;
40373;SDS011;26079;45.958;12.492;2023-06-04T02:15:28;1953.53;;;803.80;;
40373;SDS011;26079;45.958;12.492;2023-06-04T02:17:56;1999.90;;;999.90;;
40373;SDS011;26079;45.958;12.492;2023-06-04T02:20:27;1999.90;;;999.90;;
40373;SDS011;26079;45.958;12.492;2023-06-04T02:22:53;1999.90;;;999.90;;
40373;SDS011;26079;45.958;12.492;2023-06-04T02:25:20;1999.90;;;999.90;;
40373;SDS011;26079;45.958;12.492;2023-06-04T02:27:46;1999.90;;;999.90;;
40373;SDS011;26079;45.958;12.492;2023-06-04T02:30:12;1999.90;;;999.90;;
40373;SDS011;26079;45.958;12.492;2023-06-04T02:32:37;1999.90;;;999.90;;
40373;SDS011;26079;45.958;12.492;2023-06-04T02:35:04;1999.90;;;999.90;;
40373;SDS011;26079;45.958;12.492;2023-06-04T02:37:30;1999.90;;;999.90;;
40373;SDS011;26079;45.958;12.492;2023-06-04T02:39:55;1999.90;;;999.90;;
40373;SDS011;26079;45.958;12.492;2023-06-04T02:42:21;1999.90;;;999.90;;
40373;SDS011;26079;45.958;12.492;2023-06-04T02:44:47;1999.90;;;999.90;;
40373;SDS011;26079;45.958;12.492;2023-06-04T02:47:12;1999.90;;;999.90;;
40373;SDS011;26079;45.958;12.492;2023-06-04T02:49:38;1999.90;;;999.90;;
40373;SDS011;26079;45.958;12.492;2023-06-04T02:52:04;1999.90;;;999.90;;
40373;SDS011;26079;45.958;12.492;2023-06-04T02:54:30;1999.90;;;999.90;;
40373;SDS011;26079;45.958;12.492;2023-06-04T02:56:55;1999.90;;;999.90;;
40373;SDS011;26079;45.958;12.492;2023-06-04T02:59:21;1999.90;;;999.90;;
40373;SDS011;26079;45.958;12.492;2023-06-04T03:01:47;1999.90;;;999.90;;
40373;SDS011;26079;45.958;12.492;2023-06-04T03:04:13;1999.90;;;999.90;;
40373;SDS011;26079;45.958;12.492;2023-06-04T03:06:40;1999.90;;;999.90;;
40373;SDS011;26079;45.958;12.492;2023-06-04T03:09:09;1999.90;;;999.90;;
40373;SDS011;26079;45.958;12.492;2023-06-04T03:11:35;1999.90;;;999.90;;
40373;SDS011;26079;45.958;12.492;2023-06-04T03:14:01;1999.90;;;999.90;;
40373;SDS011;26079;45.958;12.492;2023-06-04T03:16:27;1999.90;;;999.90;;
40373;SDS011;26079;45.958;12.492;2023-06-04T03:18:53;1999.90;;;999.90;;
40373;SDS011;26079;45.958;12.492;2023-06-04T03:21:18;1999.90;;;999.90;;
40373;SDS011;26079;45.958;12.492;2023-06-04T03:23:44;1999.90;;;999.90;;
40373;SDS011;26079;45.958;12.492;2023-06-04T03:26:10;1999.90;;;999.90;;
40373;SDS011;26079;45.958;12.492;2023-06-04T03:28:40;1999.90;;;999.90;;
40373;SDS011;26079;45.958;12.492;2023-06-04T03:31:06;1999.90;;;999.90;;
40373;SDS011;26079;45.958;12.492;2023-06-04T03:33:32;1999.90;;;999.90;;
40373;SDS011;26079;45.958;12.492;2023-06-04T03:35:57;1999.90;;;999.90;;
40373;SDS011;26079;45.958;12.492;2023-06-04T03:38:23;1999.90;;;997.53;;
40373;SDS011;26079;45.958;12.492;2023-06-04T03:40:50;1999.90;;;991.35;;
40373;SDS011;26079;45.958;12.492;2023-06-04T03:43:18;1999.90;;;999.90;;
40373;SDS011;26079;45.958;12.492;2023-06-04T03:45:44;1999.90;;;999.90;;
40373;SDS011;26079;45.958;12.492;2023-06-04T03:48:10;1999.90;;;999.90;;
40373;SDS011;26079;45.958;12.492;2023-06-04T03:50:36;1999.90;;;999.90;;
40373;SDS011;26079;45.958;12.492;2023-06-04T03:53:02;1999.90;;;999.90;;
40373;SDS011;26079;45.958;12.492;2023-06-04T03:55:31;1999.90;;;999.90;;
40373;SDS011;26079;45.958;12.492;2023-06-04T03:58:00;1999.90;;;999.90;;
40373;SDS011;26079;45.958;12.492;2023-06-04T04:00:25;1999.90;;;999.90;;
40373;SDS011;26079;45.958;12.492;2023-06-04T04:02:51;1999.90;;;999.90;;
40373;SDS011;26079;45.958;12.492;2023-06-04T04:05:17;1999.90;;;999.90;;
40373;SDS011;26079;45.958;12.492;2023-06-04T04:07:42;1999.90;;;999.90;;
40373;SDS011;26079;45.958;12.492;2023-06-04T04:10:08;1999.90;;;999.90;;
40373;SDS011;26079;45.958;12.492;2023-06-04T04:12:34;1999.90;;;999.90;;
40373;SDS011;26079;45.958;12.492;2023-06-04T04:15:00;1999.90;;;999.90;;
40373;SDS011;26079;45.958;12.492;2023-06-04T04:17:26;1999.90;;;999.90;;
40373;SDS011;26079;45.958;12.492;2023-06-04T04:19:52;1999.90;;;999.90;;
40373;SDS011;26079;45.958;12.492;2023-06-04T04:22:17;1999.90;;;999.90;;
40373;SDS011;26079;45.958;12.492;2023-06-04T04:24:43;1999.90;;;998.90;;
40373;SDS011;26079;45.958;12.492;2023-06-04T04:27:09;1999.90;;;999.90;;
40373;SDS011;26079;45.958;12.492;2023-06-04T04:29:38;1999.90;;;999.90;;
40373;SDS011;26079;45.958;12.492;2023-06-04T04:32:04;1999.90;;;999.90;;
40373;SDS011;26079;45.958;12.492;2023-06-04T04:34:49;1999.90;;;999.90;;
40373;SDS011;26079;45.958;12.492;2023-06-04T04:39:49;1999.90;;;999.90;;
40373;SDS011;26079;45.958;12.492;2023-06-04T04:42:16;1999.90;;;999.90;;
40373;SDS011;26079;45.958;12.492;2023-06-04T04:44:43;1999.90;;;999.90;;
40373;SDS011;26079;45.958;12.492;2023-06-04T04:47:12;1999.90;;;999.90;;
40373;SDS011;26079;45.958;12.492;2023-06-04T04:49:41;1999.90;;;999.90;;
40373;SDS011;26079;45.958;12.492;2023-06-04T04:52:07;1999.90;;;999.90;;
40373;SDS011;26079;45.958;12.492;2023-06-04T04:54:32;1999.90;;;999.90;;
40373;SDS011;26079;45.958;12.492;2023-06-04T04:56:58;1999.90;;;999.90;;
40373;SDS011;26079;45.958;12.492;2023-06-04T04:59:24;1999.90;;;999.90;;
40373;SDS011;26079;45.958;12.492;2023-06-04T05:01:49;1999.90;;;999.90;;
40373;SDS011;26079;45.958;12.492;2023-06-04T05:04:15;1999.90;;;999.90;;
40373;SDS011;26079;45.958;12.492;2023-06-04T05:06:41;1999.90;;;999.90;;
40373;SDS011;26079;45.958;12.492;2023-06-04T05:09:06;1999.90;;;999.90;;
40373;SDS011;26079;45.958;12.492;2023-06-04T05:11:32;1999.90;;;999.90;;
40373;SDS011;26079;45.958;12.492;2023-06-04T05:13:58;1999.90;;;999.90;;
40373;SDS011;26079;45.958;12.492;2023-06-04T05:16:23;1999.90;;;999.90;;
40373;SDS011;26079;45.958;12.492;2023-06-04T05:18:50;1999.90;;;999.90;;
40373;SDS011;26079;45.958;12.492;2023-06-04T05:21:16;1999.90;;;999.90;;
40373;SDS011;26079;45.958;12.492;2023-06-04T05:23:42;1999.90;;;999.90;;
40373;SDS011;26079;45.958;12.492;2023-06-04T05:26:13;1999.90;;;999.90;;
40373;SDS011;26079;45.958;12.492;2023-06-04T05:28:39;1999.90;;;999.90;;
40373;SDS011;26079;45.958;12.492;2023-06-04T05:31:08;1999.90;;;999.90;;
40373;SDS011;26079;45.958;12.492;2023-06-04T05:33:35;1999.90;;;999.90;;
40373;SDS011;26079;45.958;12.492;2023-06-04T05:36:00;1999.90;;;999.90;;
40373;SDS011;26079;45.958;12.492;2023-06-04T05:38:26;1999.90;;;999.90;;
40373;SDS011;26079;45.958;12.492;2023-06-04T05:40:55;1999.90;;;999.90;;
40373;SDS011;26079;45.958;12.492;2023-06-04T05:43:21;1999.90;;;999.90;;
40373;SDS011;26079;45.958;12.492;2023-06-04T05:45:47;1999.90;;;999.90;;
40373;SDS011;26079;45.958;12.492;2023-06-04T05:48:13;1999.90;;;999.90;;
40373;SDS011;26079;45.958;12.492;2023-06-04T05:50:39;1999.90;;;999.90;;
40373;SDS011;26079;45.958;12.492;2023-06-04T05:53:05;1999.90;;;999.90;;
40373;SDS011;26079;45.958;12.492;2023-06-04T05:55:31;1999.90;;;999.90;;
40373;SDS011;26079;45.958;12.492;2023-06-04T05:57:57;1999.90;;;999.90;;
40373;SDS011;26079;45.958;12.492;2023-06-04T06:00:22;1999.90;;;999.90;;
40373;SDS011;26079;45.958;12.492;2023-06-04T06:02:49;1999.90;;;999.90;;
40373;SDS011;26079;45.958;12.492;2023-06-04T06:05:16;1999.90;;;999.90;;
40373;SDS011;26079;45.958;12.492;2023-06-04T06:07:43;1999.90;;;999.90;;
40373;SDS011;26079;45.958;12.492;2023-06-04T06:10:10;1999.90;;;999.90;;
40373;SDS011;26079;45.958;12.492;2023-06-04T06:12:36;1999.90;;;999.90;;
40373;SDS011;26079;45.958;12.492;2023-06-04T06:15:01;1999.90;;;999.90;;
40373;SDS011;26079;45.958;12.492;2023-06-04T06:17:27;1999.90;;;999.90;;
40373;SDS011;26079;45.958;12.492;2023-06-04T06:19:53;1999.90;;;999.90;;
40373;SDS011;26079;45.958;12.492;2023-06-04T06:22:20;1999.90;;;999.90;;
40373;SDS011;26079;45.958;12.492;2023-06-04T06:24:46;1999.90;;;999.90;;
40373;SDS011;26079;45.958;12.492;2023-06-04T06:27:13;1999.90;;;999.90;;
40373;SDS011;26079;45.958;12.492;2023-06-04T06:29:40;1999.90;;;999.90;;
40373;SDS011;26079;45.958;12.492;2023-06-04T06:32:07;1999.90;;;999.90;;
40373;SDS011;26079;45.958;12.492;2023-06-04T06:34:33;1999.90;;;999.90;;
40373;SDS011;26079;45.958;12.492;2023-06-04T06:36:58;1999.90;;;999.90;;
40373;SDS011;26079;45.958;12.492;2023-06-04T06:39:24;1999.90;;;999.90;;
40373;SDS011;26079;45.958;12.492;2023-06-04T06:41:50;1999.90;;;999.90;;
40373;SDS011;26079;45.958;12.492;2023-06-04T06:44:15;1999.90;;;999.90;;
40373;SDS011;26079;45.958;12.492;2023-06-04T06:46:41;1999.90;;;999.90;;
40373;SDS011;26079;45.958;12.492;2023-06-04T06:49:07;1999.90;;;999.90;;
40373;SDS011;26079;45.958;12.492;2023-06-04T06:51:33;1999.90;;;999.90;;
40373;SDS011;26079;45.958;12.492;2023-06-04T06:53:59;1999.90;;;999.90;;
40373;SDS011;26079;45.958;12.492;2023-06-04T06:56:24;1999.90;;;999.90;;
40373;SDS011;26079;45.958;12.492;2023-06-04T06:58:51;1999.90;;;999.90;;
40373;SDS011;26079;45.958;12.492;2023-06-04T07:01:17;1999.90;;;999.90;;
40373;SDS011;26079;45.958;12.492;2023-06-04T07:03:42;1999.90;;;999.90;;
40373;SDS011;26079;45.958;12.492;2023-06-04T07:06:08;1999.90;;;999.90;;
40373;SDS011;26079;45.958;12.492;2023-06-04T07:08:34;1999.90;;;999.90;;
40373;SDS011;26079;45.958;12.492;2023-06-04T07:11:03;1999.90;;;999.90;;
40373;SDS011;26079;45.958;12.492;2023-06-04T07:13:29;1999.90;;;999.90;;
40373;SDS011;26079;45.958;12.492;2023-06-04T07:15:57;1999.90;;;999.90;;
40373;SDS011;26079;45.958;12.492;2023-06-04T07:18:24;1999.90;;;999.90;;
40373;SDS011;26079;45.958;12.492;2023-06-04T07:20:49;1999.90;;;999.90;;
40373;SDS011;26079;45.958;12.492;2023-06-04T07:23:17;1999.90;;;999.90;;
40373;SDS011;26079;45.958;12.492;2023-06-04T07:25:43;1999.90;;;999.90;;
40373;SDS011;26079;45.958;12.492;2023-06-04T07:28:09;1999.90;;;999.90;;
40373;SDS011;26079;45.958;12.492;2023-06-04T07:30:35;1999.90;;;999.90;;
40373;SDS011;26079;45.958;12.492;2023-06-04T07:33:01;1999.90;;;999.90;;
40373;SDS011;26079;45.958;12.492;2023-06-04T07:35:27;1999.90;;;999.90;;
40373;SDS011;26079;45.958;12.492;2023-06-04T07:37:53;1999.90;;;999.90;;
40373;SDS011;26079;45.958;12.492;2023-06-04T07:40:18;1999.90;;;999.90;;
40373;SDS011;26079;45.958;12.492;2023-06-04T07:42:45;1999.90;;;999.90;;
40373;SDS011;26079;45.958;12.492;2023-06-04T07:45:12;1999.90;;;999.90;;
40373;SDS011;26079;45.958;12.492;2023-06-04T07:47:38;1999.90;;;999.90;;
40373;SDS011;26079;45.958;12.492;2023-06-04T07:50:04;1999.90;;;999.90;;
40373;SDS011;26079;45.958;12.492;2023-06-04T07:52:31;1999.90;;;993.03;;
40373;SDS011;26079;45.958;12.492;2023-06-04T07:54:57;1999.90;;;999.90;;
40373;SDS011;26079;45.958;12.492;2023-06-04T07:57:25;1999.90;;;999.90;;
40373;SDS011;26079;45.958;12.492;2023-06-04T07:59:51;1999.90;;;999.90;;
40373;SDS011;26079;45.958;12.492;2023-06-04T08:02:17;1999.90;;;999.90;;
40373;SDS011;26079;45.958;12.492;2023-06-04T08:04:44;1999.90;;;999.90;;
40373;SDS011;26079;45.958;12.492;2023-06-04T08:07:11;1999.90;;;999.90;;
40373;SDS011;26079;45.958;12.492;2023-06-04T08:09:37;1999.90;;;999.90;;
40373;SDS011;26079;45.958;12.492;2023-06-04T08:12:02;1999.90;;;999.90;;
40373;SDS011;26079;45.958;12.492;2023-06-04T08:14:28;1999.90;;;999.90;;
40373;SDS011;26079;45.958;12.492;2023-06-04T08:16:54;1999.90;;;999.90;;
40373;SDS011;26079;45.958;12.492;2023-06-04T08:19:20;1999.90;;;999.90;;
40373;SDS011;26079;45.958;12.492;2023-06-04T08:21:45;1999.90;;;999.90;;
40373;SDS011;26079;45.958;12.492;2023-06-04T08:24:12;1999.90;;;999.90;;
40373;SDS011;26079;45.958;12.492;2023-06-04T08:26:38;1999.90;;;999.90;;
40373;SDS011;26079;45.958;12.492;2023-06-04T08:29:04;1999.90;;;999.90;;
40373;SDS011;26079;45.958;12.492;2023-06-04T08:31:30;1999.90;;;999.90;;
40373;SDS011;26079;45.958;12.492;2023-06-04T08:33:56;1999.90;;;999.90;;
40373;SDS011;26079;45.958;12.492;2023-06-04T08:36:22;1999.90;;;999.90;;
40373;SDS011;26079;45.958;12.492;2023-06-04T08:38:47;1999.90;;;999.90;;
40373;SDS011;26079;45.958;12.492;2023-06-04T08:41:17;1999.90;;;999.90;;
40373;SDS011;26079;45.958;12.492;2023-06-04T08:43:46;1999.90;;;999.90;;
40373;SDS011;26079;45.958;12.492;2023-06-04T08:46:15;1999.90;;;999.90;;
40373;SDS011;26079;45.958;12.492;2023-06-04T08:48:42;1999.90;;;999.90;;
40373;SDS011;26079;45.958;12.492;2023-06-04T08:51:08;1999.90;;;999.90;;
40373;SDS011;26079;45.958;12.492;2023-06-04T08:53:35;1999.90;;;999.90;;
40373;SDS011;26079;45.958;12.492;2023-06-04T08:56:02;1999.90;;;999.90;;
40373;SDS011;26079;45.958;12.492;2023-06-04T08:58:30;1999.90;;;999.90;;
40373;SDS011;26079;45.958;12.492;2023-06-04T09:00:58;1999.90;;;999.90;;
40373;SDS011;26079;45.958;12.492;2023-06-04T09:03:25;1999.90;;;999.90;;
40373;SDS011;26079;45.958;12.492;2023-06-04T09:05:51;1999.90;;;999.90;;
40373;SDS011;26079;45.958;12.492;2023-06-04T09:08:17;1999.90;;;999.90;;
40373;SDS011;26079;45.958;12.492;2023-06-04T09:10:44;1999.90;;;999.90;;
40373;SDS011;26079;45.958;12.492;2023-06-04T09:13:17;1999.90;;;999.90;;
40373;SDS011;26079;45.958;12.492;2023-06-04T09:15:44;1999.90;;;999.90;;
40373;SDS011;26079;45.958;12.492;2023-06-04T09:18:11;1999.90;;;999.90;;
40373;SDS011;26079;45.958;12.492;2023-06-04T09:20:37;1999.90;;;999.90;;
40373;SDS011;26079;45.958;12.492;2023-06-04T09:23:12;1999.90;;;999.90;;
40373;SDS011;26079;45.958;12.492;2023-06-04T09:25:43;1999.90;;;999.90;;
40373;SDS011;26079;45.958;12.492;2023-06-04T09:28:09;1999.90;;;999.90;;
40373;SDS011;26079;45.958;12.492;2023-06-04T09:30:34;1999.90;;;999.90;;
40373;SDS011;26079;45.958;12.492;2023-06-04T09:33:07;1999.90;;;999.90;;
40373;SDS011;26079;45.958;12.492;2023-06-04T09:35:33;1999.90;;;999.90;;
40373;SDS011;26079;45.958;12.492;2023-06-04T09:38:00;1999.90;;;999.90;;
40373;SDS011;26079;45.958;12.492;2023-06-04T09:40:34;1999.90;;;999.90;;
40373;SDS011;26079;45.958;12.492;2023-06-04T09:43:03;1999.90;;;999.90;;
40373;SDS011;26079;45.958;12.492;2023-06-04T09:45:32;1999.90;;;999.90;;
40373;SDS011;26079;45.958;12.492;2023-06-04T09:48:00;1999.90;;;999.90;;
40373;SDS011;26079;45.958;12.492;2023-06-04T09:50:33;1999.90;;;999.90;;
40373;SDS011;26079;45.958;12.492;2023-06-04T09:53:12;1999.90;;;999.90;;
40373;SDS011;26079;45.958;12.492;2023-06-04T09:55:57;1999.90;;;999.90;;
40373;SDS011;26079;45.958;12.492;2023-06-04T10:00:56;1999.90;;;999.90;;
40373;SDS011;26079;45.958;12.492;2023-06-04T10:03:23;1999.90;;;999.90;;
40373;SDS011;26079;45.958;12.492;2023-06-04T10:05:56;1999.90;;;999.90;;
40373;SDS011;26079;45.958;12.492;2023-06-04T10:08:22;1999.90;;;999.90;;
40373;SDS011;26079;45.958;12.492;2023-06-04T10:10:50;1999.90;;;999.90;;
40373;SDS011;26079;45.958;12.492;2023-06-04T10:13:19;1999.90;;;999.90;;
40373;SDS011;26079;45.958;12.492;2023-06-04T10:15:46;1999.90;;;999.90;;
40373;SDS011;26079;45.958;12.492;2023-06-04T10:18:13;1999.90;;;999.90;;
40373;SDS011;26079;45.958;12.492;2023-06-04T10:20:40;1999.90;;;999.90;;
40373;SDS011;26079;45.958;12.492;2023-06-04T10:23:06;1999.90;;;999.90;;
40373;SDS011;26079;45.958;12.492;2023-06-04T10:25:36;1999.90;;;999.90;;
40373;SDS011;26079;45.958;12.492;2023-06-04T10:28:02;1999.90;;;999.90;;
40373;SDS011;26079;45.958;12.492;2023-06-04T10:30:29;1999.90;;;999.90;;
40373;SDS011;26079;45.958;12.492;2023-06-04T10:32:56;1999.90;;;999.90;;
40373;SDS011;26079;45.958;12.492;2023-06-04T10:35:35;1999.90;;;999.90;;
40373;SDS011;26079;45.958;12.492;2023-06-04T10:38:08;1999.90;;;999.90;;
40373;SDS011;26079;45.958;12.492;2023-06-04T10:40:35;1999.90;;;999.90;;
40373;SDS011;26079;45.958;12.492;2023-06-04T10:43:05;1999.90;;;999.90;;
40373;SDS011;26079;45.958;12.492;2023-06-04T10:45:32;1999.90;;;999.90;;
40373;SDS011;26079;45.958;12.492;2023-06-04T10:48:01;1999.90;;;999.90;;
40373;SDS011;26079;45.958;12.492;2023-06-04T10:50:28;1999.90;;;999.90;;
40373;SDS011;26079;45.958;12.492;2023-06-04T10:52:55;1999.90;;;999.90;;
40373;SDS011;26079;45.958;12.492;2023-06-04T10:55:23;1999.90;;;999.90;;
40373;SDS011;26079;45.958;12.492;2023-06-04T10:57:53;1999.90;;;999.90;;
40373;SDS011;26079;45.958;12.492;2023-06-04T11:00:38;1999.90;;;947.95;;
40373;SDS011;26079;45.958;12.492;2023-06-04T11:03:06;1999.90;;;999.90;;
40373;SDS011;26079;45.958;12.492;2023-06-04T11:05:33;1999.90;;;999.90;;
40373;SDS011;26079;45.958;12.492;2023-06-04T11:08:10;1999.90;;;996.88;;
40373;SDS011;26079;45.958;12.492;2023-06-04T11:10:38;1999.90;;;848.15;;
40373;SDS011;26079;45.958;12.492;2023-06-04T11:13:05;1999.90;;;820.85;;
40373;SDS011;26079;45.958;12.492;2023-06-04T11:15:41;1999.90;;;339.67;;
40373;SDS011;26079;45.958;12.492;2023-06-04T11:18:15;1999.90;;;999.90;;
40373;SDS011;26079;45.958;12.492;2023-06-04T11:20:43;1999.90;;;999.90;;
40373;SDS011;26079;45.958;12.492;2023-06-04T11:23:11;1999.90;;;733.45;;
40373;SDS011;26079;45.958;12.492;2023-06-04T11:25:37;1999.90;;;999.90;;
40373;SDS011;26079;45.958;12.492;2023-06-04T11:28:03;1999.90;;;999.90;;
40373;SDS011;26079;45.958;12.492;2023-06-04T11:30:29;1999.90;;;999.90;;
40373;SDS011;26079;45.958;12.492;2023-06-04T11:33:02;1999.90;;;999.90;;
40373;SDS011;26079;45.958;12.492;2023-06-04T11:35:28;1999.90;;;999.90;;
40373;SDS011;26079;45.958;12.492;2023-06-04T11:37:55;1999.90;;;999.90;;
40373;SDS011;26079;45.958;12.492;2023-06-04T11:40:22;1999.90;;;831.58;;
40373;SDS011;26079;45.958;12.492;2023-06-04T11:42:48;1999.90;;;999.90;;
40373;SDS011;26079;45.958;12.492;2023-06-04T11:45:18;1999.90;;;999.90;;
40373;SDS011;26079;45.958;12.492;2023-06-04T11:47:52;1999.90;;;999.90;;
40373;SDS011;26079;45.958;12.492;2023-06-04T11:50:19;1999.90;;;999.90;;
40373;SDS011;26079;45.958;12.492;2023-06-04T11:52:46;1999.90;;;999.90;;
40373;SDS011;26079;45.958;12.492;2023-06-04T11:55:13;1999.90;;;999.90;;
40373;SDS011;26079;45.958;12.492;2023-06-04T11:57:39;1999.90;;;999.90;;
40373;SDS011;26079;45.958;12.492;2023-06-04T12:00:06;1999.90;;;717.72;;
40373;SDS011;26079;45.958;12.492;2023-06-04T12:02:36;1999.90;;;764.28;;
40373;SDS011;26079;45.958;12.492;2023-06-04T12:05:14;1999.90;;;999.90;;
40373;SDS011;26079;45.958;12.492;2023-06-04T12:07:43;1999.90;;;999.90;;
40373;SDS011;26079;45.958;12.492;2023-06-04T12:10:09;1999.90;;;999.90;;
40373;SDS011;26079;45.958;12.492;2023-06-04T12:12:37;1999.90;;;999.90;;
40373;SDS011;26079;45.958;12.492;2023-06-04T12:15:03;1895.80;;;633.15;;
40373;SDS011;26079;45.958;12.492;2023-06-04T12:17:30;1999.90;;;999.90;;
40373;SDS011;26079;45.958;12.492;2023-06-04T12:19:57;1999.90;;;999.90;;
40373;SDS011;26079;45.958;12.492;2023-06-04T12:22:23;1999.90;;;999.90;;
40373;SDS011;26079;45.958;12.492;2023-06-04T12:24:51;1999.90;;;999.90;;
40373;SDS011;26079;45.958;12.492;2023-06-04T12:27:22;1999.90;;;999.90;;
40373;SDS011;26079;45.958;12.492;2023-06-04T12:29:57;1999.90;;;999.90;;
40373;SDS011;26079;45.958;12.492;2023-06-04T12:32:28;1999.90;;;999.90;;
40373;SDS011;26079;45.958;12.492;2023-06-04T12:34:54;1999.90;;;999.90;;
40373;SDS011;26079;45.958;12.492;2023-06-04T12:37:20;1999.90;;;999.90;;
40373;SDS011;26079;45.958;12.492;2023-06-04T12:39:52;1999.90;;;999.90;;
40373;SDS011;26079;45.958;12.492;2023-06-04T12:42:19;1999.90;;;999.90;;
40373;SDS011;26079;45.958;12.492;2023-06-04T12:44:45;1999.90;;;999.90;;
40373;SDS011;26079;45.958;12.492;2023-06-04T12:47:11;1999.90;;;999.90;;
40373;SDS011;26079;45.958;12.492;2023-06-04T12:49:37;1999.90;;;999.90;;
40373;SDS011;26079;45.958;12.492;2023-06-04T12:52:03;1999.90;;;999.90;;
40373;SDS011;26079;45.958;12.492;2023-06-04T12:54:29;1999.90;;;999.90;;
40373;SDS011;26079;45.958;12.492;2023-06-04T12:56:55;1999.90;;;999.90;;
40373;SDS011;26079;45.958;12.492;2023-06-04T12:59:26;1999.90;;;999.90;;
40373;SDS011;26079;45.958;12.492;2023-06-04T13:01:53;1999.90;;;999.90;;
40373;SDS011;26079;45.958;12.492;2023-06-04T13:04:19;1999.90;;;999.90;;
40373;SDS011;26079;45.958;12.492;2023-06-04T13:06:45;1999.90;;;999.90;;
40373;SDS011;26079;45.958;12.492;2023-06-04T13:09:11;1999.90;;;999.90;;
40373;SDS011;26079;45.958;12.492;2023-06-04T13:11:38;1999.90;;;999.90;;
40373;SDS011;26079;45.958;12.492;2023-06-04T13:14:05;1999.90;;;999.90;;
40373;SDS011;26079;45.958;12.492;2023-06-04T13:16:32;1999.90;;;999.90;;
40373;SDS011;26079;45.958;12.492;2023-06-04T13:18:58;1999.90;;;999.90;;
40373;SDS011;26079;45.958;12.492;2023-06-04T13:21:26;1999.90;;;999.90;;
40373;SDS011;26079;45.958;12.492;2023-06-04T13:23:52;1999.90;;;999.90;;
40373;SDS011;26079;45.958;12.492;2023-06-04T13:26:18;1999.90;;;999.90;;
40373;SDS011;26079;45.958;12.492;2023-06-04T13:28:45;1999.90;;;999.90;;
40373;SDS011;26079;45.958;12.492;2023-06-04T13:31:12;1999.90;;;999.90;;
40373;SDS011;26079;45.958;12.492;2023-06-04T13:33:37;1999.90;;;999.90;;
40373;SDS011;26079;45.958;12.492;2023-06-04T13:36:04;1999.90;;;999.90;;
40373;SDS011;26079;45.958;12.492;2023-06-04T13:38:31;1999.90;;;999.90;;
40373;SDS011;26079;45.958;12.492;2023-06-04T13:40:57;1999.90;;;999.90;;
40373;SDS011;26079;45.958;12.492;2023-06-04T13:43:23;1999.90;;;999.90;;
40373;SDS011;26079;45.958;12.492;2023-06-04T13:45:49;1999.90;;;999.90;;